Los Molinos, California
Current Conditions -  °F | °C
As of 1:54 AM on Saturday 25 Oct 2014 (Local Time) from KRBL Reporting Station
Overcast Overcast  
Wind Chill: 63°   Ceiling: 6000
Heat Index: 63°   Visibility: 10mi
Dew Point: 52°   Wind: 20mph
Humidity: 67%   Direction: 160°SSE
Pressure: 29.83"   Gusts: 29mph
Location:  40.02°N, 122.1°W
Report Text: KRBL 250854Z AUTO 16017G25KT 10SM OVC060 17/11 A2983 RMK AO2 PK WND 14026/0806 SLP097 T01720111 53000
Loading
Personal Weather Stations






























Interactive Weather Map
Tropical Storm Tracking
New forecast layout! Learn more

10-Day Weather Forecast

Advertisements
Track Severe Weather on mobile